createdAt,value
2022-11-05T00:00:50.314Z,9.34
2022-11-05T00:01:50.372Z,9.32
2022-11-05T00:02:50.315Z,9.32
2022-11-05T00:03:50.363Z,9.34
2022-11-05T00:04:50.276Z,9.34
2022-11-05T00:05:50.270Z,9.34
2022-11-05T00:06:50.261Z,9.34
2022-11-05T00:07:50.267Z,9.34
2022-11-05T00:08:50.233Z,9.35
2022-11-05T00:09:50.223Z,9.38
2022-11-05T00:10:50.204Z,9.34
2022-11-05T00:11:50.206Z,9.38
2022-11-05T00:12:50.197Z,9.38
2022-11-05T00:13:50.178Z,9.38
2022-11-05T00:14:50.179Z,9.38
2022-11-05T00:15:50.158Z,9.38
2022-11-05T00:16:50.141Z,9.38
2022-11-05T00:17:50.141Z,9.40
2022-11-05T00:18:50.120Z,9.40
2022-11-05T00:19:50.133Z,9.42
2022-11-05T00:20:50.100Z,9.42
2022-11-05T00:21:50.096Z,9.42
2022-11-05T00:22:50.092Z,9.45
2022-11-05T00:23:50.063Z,9.45
2022-11-05T00:24:50.056Z,9.45
2022-11-05T00:25:50.046Z,9.46
2022-11-05T00:26:50.040Z,9.48
2022-11-05T00:27:50.052Z,9.48
2022-11-05T00:28:50.012Z,9.46
2022-11-05T00:29:50.001Z,9.48
2022-11-05T00:30:49.979Z,9.46
2022-11-05T00:31:49.986Z,9.46
2022-11-05T00:32:49.961Z,9.43
2022-11-05T00:33:49.965Z,9.40
2022-11-05T00:34:49.943Z,9.38
2022-11-05T00:35:49.933Z,9.35
2022-11-05T00:36:49.912Z,9.38
2022-11-05T00:37:50.700Z,9.35
2022-11-05T00:38:49.916Z,9.34
2022-11-05T00:39:49.911Z,9.35
2022-11-05T00:40:49.867Z,9.34
2022-11-05T00:41:49.865Z,9.34
2022-11-05T00:42:49.865Z,9.32
2022-11-05T00:43:49.862Z,9.32
2022-11-05T00:44:49.819Z,9.32
2022-11-05T00:45:49.821Z,9.31
2022-11-05T00:46:49.816Z,9.31
2022-11-05T00:47:49.798Z,9.28
2022-11-05T00:48:49.797Z,9.30
2022-11-05T00:49:49.775Z,9.28
2022-11-05T00:50:49.762Z,9.28
2022-11-05T00:51:49.750Z,9.25
2022-11-05T00:52:49.747Z,9.27
2022-11-05T00:53:49.741Z,9.27
2022-11-05T00:54:49.712Z,9.24
2022-11-05T00:55:49.709Z,9.24
2022-11-05T00:56:49.690Z,9.24
2022-11-05T00:57:49.681Z,9.24
2022-11-05T00:58:49.685Z,9.23
2022-11-05T00:59:49.661Z,9.23
2022-11-05T01:00:49.650Z,9.20
2022-11-05T01:01:49.743Z,9.20
2022-11-05T01:02:49.778Z,9.16
2022-11-05T01:03:51.936Z,9.16
2022-11-05T01:04:49.600Z,9.18
2022-11-05T01:05:49.606Z,9.15
2022-11-05T01:06:50.527Z,9.13
2022-11-05T01:07:49.578Z,9.12
2022-11-05T01:08:49.572Z,9.10
2022-11-05T01:09:49.545Z,9.10
2022-11-05T01:10:49.532Z,9.09
2022-11-05T01:11:49.535Z,9.06
2022-11-05T01:12:49.513Z,9.06
2022-11-05T01:13:49.524Z,9.06
2022-11-05T01:14:50.459Z,9.09
2022-11-05T01:15:49.477Z,9.10
2022-11-05T01:16:49.461Z,9.09
2022-11-05T01:17:49.456Z,9.10
2022-11-05T01:18:49.442Z,9.10
2022-11-05T01:19:49.449Z,9.13
2022-11-05T01:20:49.427Z,9.15
2022-11-05T01:21:49.441Z,9.15
2022-11-05T01:22:49.408Z,9.16
2022-11-05T01:23:49.395Z,9.16
2022-11-05T01:24:49.388Z,9.18
2022-11-05T01:25:49.367Z,9.21
2022-11-05T01:26:49.348Z,9.21
2022-11-05T01:27:49.351Z,9.23
2022-11-05T01:28:49.416Z,9.24
2022-11-05T01:29:49.341Z,9.24
2022-11-05T01:30:49.315Z,9.25
2022-11-05T01:31:49.302Z,9.27
2022-11-05T01:32:49.289Z,9.27
2022-11-05T01:33:49.280Z,9.28
2022-11-05T01:34:49.261Z,9.28
2022-11-05T01:35:49.271Z,9.28
2022-11-05T01:36:49.236Z,9.28
2022-11-05T01:37:49.240Z,9.27
2022-11-05T01:38:50.170Z,9.30
2022-11-05T01:39:49.222Z,9.30
2022-11-05T01:40:49.203Z,9.28
2022-11-05T01:41:49.197Z,9.28
2022-11-05T01:42:49.179Z,9.28
2022-11-05T01:43:49.165Z,9.24
2022-11-05T01:44:49.153Z,9.24
2022-11-05T01:45:49.155Z,9.16
2022-11-05T01:46:49.124Z,9.10
2022-11-05T01:47:49.132Z,9.06
2022-11-05T01:48:49.101Z,9.04
2022-11-05T01:49:49.095Z,9.02
2022-11-05T01:50:49.097Z,9.02
2022-11-05T01:51:49.076Z,9.04
2022-11-05T01:52:49.066Z,9.05
2022-11-05T01:53:49.062Z,9.06
2022-11-05T01:54:49.059Z,9.09
2022-11-05T01:55:49.045Z,9.10
2022-11-05T01:56:49.018Z,9.12
2022-11-05T01:57:49.020Z,9.15
2022-11-05T01:58:49.002Z,9.15
2022-11-05T01:59:48.999Z,9.16
2022-11-05T02:00:48.970Z,9.18
2022-11-05T02:01:49.056Z,9.18
2022-11-05T02:02:49.097Z,9.21
2022-11-05T02:03:48.953Z,9.23
2022-11-05T02:04:48.919Z,9.25
2022-11-05T02:05:48.932Z,9.25
2022-11-05T02:06:48.890Z,9.27
2022-11-05T02:07:48.892Z,9.25
2022-11-05T02:08:48.899Z,9.27
2022-11-05T02:09:48.896Z,9.24
2022-11-05T02:10:48.854Z,9.24
2022-11-05T02:11:48.844Z,9.24
2022-11-05T02:12:48.836Z,9.24
2022-11-05T02:13:48.826Z,9.25
2022-11-05T02:14:48.833Z,9.24
2022-11-05T02:15:48.813Z,9.25
2022-11-05T02:16:48.794Z,9.28
2022-11-05T02:17:48.776Z,9.28
2022-11-05T02:18:48.779Z,9.27
2022-11-05T02:19:48.772Z,9.28
2022-11-05T02:20:52.196Z,9.30
2022-11-05T02:21:48.743Z,9.28
2022-11-05T02:22:48.759Z,9.28
2022-11-05T02:23:48.723Z,9.27
2022-11-05T02:24:48.712Z,9.24
2022-11-05T02:25:48.686Z,9.24
2022-11-05T02:26:48.679Z,9.23
2022-11-05T02:27:48.710Z,9.21
2022-11-05T02:28:48.674Z,9.21
2022-11-05T02:29:48.668Z,9.20
2022-11-05T02:30:48.635Z,9.20
2022-11-05T02:31:48.619Z,9.18
2022-11-05T02:32:48.620Z,9.18
2022-11-05T02:33:48.617Z,9.18
2022-11-05T02:34:48.588Z,9.15
2022-11-05T02:35:48.589Z,9.18
2022-11-05T02:36:48.581Z,9.18
2022-11-05T02:37:48.559Z,9.16
2022-11-05T02:38:48.540Z,9.15
2022-11-05T02:39:48.622Z,9.13
2022-11-05T02:40:48.524Z,9.13
2022-11-05T02:41:48.506Z,9.13
2022-11-05T02:42:48.506Z,9.10
2022-11-05T02:43:48.499Z,9.12
2022-11-05T02:44:48.503Z,9.09
2022-11-05T02:45:48.479Z,9.09
2022-11-05T02:46:48.472Z,9.09
2022-11-05T02:47:48.446Z,9.06
2022-11-05T02:48:48.434Z,9.06
2022-11-05T02:49:48.439Z,9.05
2022-11-05T02:50:48.412Z,9.06
2022-11-05T02:51:48.391Z,9.06
2022-11-05T02:52:48.385Z,9.06
2022-11-05T02:53:48.380Z,9.05
2022-11-05T02:54:48.385Z,9.05
2022-11-05T02:55:48.342Z,9.04
2022-11-05T02:56:48.335Z,9.04
2022-11-05T02:57:48.325Z,9.05
2022-11-05T02:58:48.321Z,9.04
2022-11-05T02:59:48.316Z,9.04
2022-11-05T03:00:48.286Z,9.02
2022-11-05T03:01:48.463Z,9.02
2022-11-05T03:02:48.423Z,9.02
2022-11-05T03:03:48.278Z,8.99
2022-11-05T03:04:48.270Z,9.02
2022-11-05T03:05:48.230Z,9.02
2022-11-05T03:06:48.230Z,9.01
2022-11-05T03:07:48.208Z,8.99
2022-11-05T03:08:48.211Z,9.01
2022-11-05T03:09:48.203Z,9.01
2022-11-05T03:10:48.218Z,9.01
2022-11-05T03:11:48.193Z,9.01
2022-11-05T03:12:48.164Z,8.99
2022-11-05T03:13:48.151Z,9.02
2022-11-05T03:14:48.135Z,9.01
2022-11-05T03:15:48.131Z,9.04
2022-11-05T03:16:48.129Z,9.02
2022-11-05T03:17:48.090Z,9.04
2022-11-05T03:18:48.103Z,9.04
2022-11-05T03:19:48.092Z,9.04
2022-11-05T03:20:48.074Z,9.04
2022-11-05T03:21:48.052Z,9.04
2022-11-05T03:22:48.048Z,9.02
2022-11-05T03:23:48.062Z,9.02
2022-11-05T03:24:48.033Z,9.02
2022-11-05T03:25:48.026Z,9.04
2022-11-05T03:26:48.018Z,9.02
2022-11-05T03:27:47.992Z,9.02
2022-11-05T03:28:47.993Z,9.02
2022-11-05T03:29:47.965Z,9.02
2022-11-05T03:30:47.974Z,9.02
2022-11-05T03:31:47.936Z,9.01
2022-11-05T03:32:47.929Z,9.01
2022-11-05T03:33:47.915Z,8.99
2022-11-05T03:34:47.922Z,8.97
2022-11-05T03:35:47.915Z,8.97
2022-11-05T03:36:47.886Z,8.97
2022-11-05T03:37:47.901Z,8.97
2022-11-05T03:38:47.863Z,8.97
2022-11-05T03:39:47.856Z,8.96
2022-11-05T03:40:47.881Z,8.94
2022-11-05T03:41:47.827Z,8.93
2022-11-05T03:42:47.812Z,8.93
2022-11-05T03:43:47.817Z,8.91
2022-11-05T03:44:47.789Z,8.91
2022-11-05T03:45:47.808Z,8.90
2022-11-05T03:46:47.780Z,8.88
2022-11-05T03:47:47.776Z,8.90
2022-11-05T03:48:47.820Z,8.87
2022-11-05T03:49:47.808Z,8.86
2022-11-05T03:50:47.731Z,8.84
2022-11-05T03:51:47.710Z,8.83
2022-11-05T03:52:47.729Z,8.83
2022-11-05T03:53:47.708Z,8.79
2022-11-05T03:54:47.683Z,8.79
2022-11-05T03:55:47.670Z,8.76
2022-11-05T03:56:47.678Z,8.75
2022-11-05T03:57:47.652Z,8.75
2022-11-05T03:58:47.645Z,8.73
2022-11-05T03:59:47.651Z,8.72
2022-11-05T04:00:47.621Z,8.71
2022-11-05T04:01:47.721Z,8.71
2022-11-05T04:02:47.783Z,8.69
2022-11-05T04:03:47.584Z,8.68
2022-11-05T04:04:47.596Z,8.65
2022-11-05T04:05:47.581Z,8.65
2022-11-05T04:06:47.544Z,8.66
2022-11-05T04:07:47.536Z,8.63
2022-11-05T04:08:47.544Z,8.62
2022-11-05T04:09:47.519Z,8.60
2022-11-05T04:10:47.517Z,8.58
2022-11-05T04:11:47.485Z,8.57
2022-11-05T04:12:47.489Z,8.55
2022-11-05T04:13:47.487Z,8.54
2022-11-05T04:14:47.463Z,8.54
2022-11-05T04:15:48.423Z,8.50
2022-11-05T04:16:47.437Z,8.47
2022-11-05T04:17:47.417Z,8.47
2022-11-05T04:18:47.411Z,8.45
2022-11-05T04:19:47.410Z,8.45
2022-11-05T04:20:47.397Z,8.45
2022-11-05T04:21:47.385Z,8.42
2022-11-05T04:22:47.374Z,8.40
2022-11-05T04:23:47.360Z,8.37
2022-11-05T04:24:47.360Z,8.33
2022-11-05T04:25:47.341Z,8.29
2022-11-05T04:26:47.321Z,8.25
2022-11-05T04:27:47.327Z,8.22
2022-11-05T04:28:47.299Z,8.22
2022-11-05T04:29:47.290Z,8.21
2022-11-05T04:30:47.328Z,8.21
2022-11-05T04:31:47.275Z,8.21
2022-11-05T04:32:47.260Z,8.20
2022-11-05T04:33:47.242Z,8.18
2022-11-05T04:34:47.252Z,8.18
2022-11-05T04:35:47.232Z,8.17
2022-11-05T04:36:47.235Z,8.17
2022-11-05T04:37:47.202Z,8.15
2022-11-05T04:38:47.183Z,8.18
2022-11-05T04:39:47.183Z,8.18
2022-11-05T04:40:47.165Z,8.17
2022-11-05T04:41:47.146Z,8.15
2022-11-05T04:42:47.157Z,8.15
2022-11-05T04:43:47.133Z,8.15
2022-11-05T04:44:47.119Z,8.15
2022-11-05T04:45:47.151Z,8.14
2022-11-05T04:46:47.118Z,8.15
2022-11-05T04:47:47.078Z,8.12
2022-11-05T04:48:47.081Z,8.10
2022-11-05T04:49:47.054Z,8.08
2022-11-05T04:50:47.067Z,8.07
2022-11-05T04:51:47.038Z,8.04
2022-11-05T04:52:47.039Z,8.03
2022-11-05T04:53:47.007Z,8.02
2022-11-05T04:54:47.015Z,8.00
2022-11-05T04:55:46.989Z,7.97
2022-11-05T04:56:46.978Z,7.96
2022-11-05T04:57:46.976Z,7.94
2022-11-05T04:58:46.983Z,7.92
2022-11-05T04:59:46.941Z,7.89
2022-11-05T05:00:47.027Z,7.87
2022-11-05T05:01:46.979Z,7.85
2022-11-05T05:02:46.930Z,7.84
2022-11-05T05:03:46.907Z,7.82
2022-11-05T05:04:46.917Z,7.81
2022-11-05T05:05:46.882Z,7.78
2022-11-05T05:06:46.886Z,7.77
2022-11-05T05:07:46.869Z,7.75
2022-11-05T05:08:46.863Z,7.75
2022-11-05T05:09:46.836Z,7.77
2022-11-05T05:10:46.823Z,7.77
2022-11-05T05:11:46.823Z,7.78
2022-11-05T05:12:46.830Z,7.79
2022-11-05T05:13:46.803Z,7.78
2022-11-05T05:14:46.799Z,7.79
2022-11-05T05:15:46.769Z,7.81
2022-11-05T05:16:46.759Z,7.79
2022-11-05T05:17:46.750Z,7.81
2022-11-05T05:18:46.759Z,7.82
2022-11-05T05:19:46.753Z,7.81
2022-11-05T05:20:46.718Z,7.78
2022-11-05T05:21:46.712Z,7.77
2022-11-05T05:22:46.686Z,7.75
2022-11-05T05:23:46.686Z,7.72
2022-11-05T05:24:52.393Z,7.67
2022-11-05T05:25:47.666Z,7.66
2022-11-05T05:26:47.591Z,7.62
2022-11-05T05:27:46.638Z,7.59
2022-11-05T05:28:46.626Z,7.56
2022-11-05T05:29:46.626Z,7.55
2022-11-05T05:30:46.619Z,7.53
2022-11-05T05:31:46.597Z,7.49
2022-11-05T05:32:46.600Z,7.44
2022-11-05T05:33:46.568Z,7.42
2022-11-05T05:34:46.562Z,7.44
2022-11-05T05:35:46.566Z,7.41
2022-11-05T05:36:46.567Z,7.40
2022-11-05T05:37:46.537Z,7.40
2022-11-05T05:38:47.489Z,7.40
2022-11-05T05:39:46.536Z,7.37
2022-11-05T05:40:46.510Z,7.35
2022-11-05T05:41:46.497Z,7.34
2022-11-05T05:42:47.416Z,7.31
2022-11-05T05:43:46.463Z,7.29
2022-11-05T05:44:46.474Z,7.24
2022-11-05T05:45:46.465Z,7.27
2022-11-05T05:46:46.433Z,7.27
2022-11-05T05:47:46.416Z,7.26
2022-11-05T05:48:46.405Z,7.26
2022-11-05T05:49:46.409Z,7.27
2022-11-05T05:50:46.418Z,7.26
2022-11-05T05:51:46.394Z,7.26
2022-11-05T05:52:46.363Z,7.27
2022-11-05T05:53:46.359Z,7.29
2022-11-05T05:54:46.339Z,7.29
2022-11-05T05:55:46.322Z,7.27
2022-11-05T05:56:46.329Z,7.26
2022-11-05T05:57:46.305Z,7.27
2022-11-05T05:58:46.298Z,7.26
2022-11-05T05:59:46.275Z,7.26
2022-11-05T06:00:46.299Z,7.26
2022-11-05T06:01:46.377Z,7.26
2022-11-05T06:02:46.412Z,7.23
2022-11-05T06:03:46.227Z,7.24
2022-11-05T06:04:46.255Z,7.23
2022-11-05T06:05:46.209Z,7.23
2022-11-05T06:06:46.218Z,7.22
2022-11-05T06:07:46.200Z,7.24
2022-11-05T06:08:46.176Z,7.26
2022-11-05T06:09:46.166Z,7.23
2022-11-05T06:10:46.220Z,7.24
2022-11-05T06:11:46.157Z,7.24
2022-11-05T06:12:46.129Z,7.24
2022-11-05T06:13:46.117Z,7.26
2022-11-05T06:14:46.112Z,7.24
2022-11-05T06:15:46.119Z,7.26
2022-11-05T06:16:46.090Z,7.26
2022-11-05T06:17:46.112Z,7.26
2022-11-05T06:18:46.093Z,7.27
2022-11-05T06:19:47.007Z,7.29
2022-11-05T06:20:46.043Z,7.31
2022-11-05T06:21:46.042Z,7.31
2022-11-05T06:22:46.031Z,7.32
2022-11-05T06:23:46.030Z,7.35
2022-11-05T06:24:46.028Z,7.35
2022-11-05T06:25:45.987Z,7.38
2022-11-05T06:26:45.996Z,7.38
2022-11-05T06:27:45.971Z,7.38
2022-11-05T06:28:46.007Z,7.38
2022-11-05T06:29:45.943Z,7.38
2022-11-05T06:30:45.939Z,7.40
2022-11-05T06:31:45.924Z,7.38
2022-11-05T06:32:45.918Z,7.35
2022-11-05T06:33:45.983Z,7.34
2022-11-05T06:34:45.912Z,7.37
2022-11-05T06:35:45.881Z,7.35
2022-11-05T06:36:45.906Z,7.35
2022-11-05T06:37:45.860Z,7.32
2022-11-05T06:38:45.896Z,7.32
2022-11-05T06:39:45.834Z,7.32
2022-11-05T06:40:45.825Z,7.31
2022-11-05T06:42:11.931Z,7.29
2022-11-05T06:42:46.824Z,7.27
2022-11-05T06:43:45.792Z,7.27
2022-11-05T06:44:45.789Z,7.26
2022-11-05T06:45:45.784Z,7.24
2022-11-05T06:46:48.673Z,7.26
2022-11-05T06:47:45.764Z,7.24
2022-11-05T06:48:45.745Z,7.23
2022-11-05T06:49:45.730Z,7.22
2022-11-05T06:50:45.747Z,7.22
2022-11-05T06:51:45.723Z,7.22
2022-11-05T06:52:45.694Z,7.20
2022-11-05T06:53:45.725Z,7.19
2022-11-05T06:54:45.672Z,7.20
2022-11-05T06:55:45.701Z,7.19
2022-11-05T06:56:45.647Z,7.20
2022-11-05T06:57:45.641Z,7.19
2022-11-05T06:58:45.630Z,7.22
2022-11-05T06:59:45.633Z,7.23
2022-11-05T07:00:45.686Z,7.26
2022-11-05T07:01:45.745Z,7.27
2022-11-05T07:02:45.579Z,7.31
2022-11-05T07:03:45.592Z,7.34
2022-11-05T07:04:45.578Z,7.35
2022-11-05T07:05:45.549Z,7.38
2022-11-05T07:06:45.534Z,7.42
2022-11-05T07:07:45.526Z,7.44
2022-11-05T07:08:45.544Z,7.45
2022-11-05T07:09:45.513Z,7.50
2022-11-05T07:10:45.502Z,7.53
2022-11-05T07:11:45.489Z,7.58
2022-11-05T07:12:45.489Z,7.59
2022-11-05T07:13:45.474Z,7.60
2022-11-05T07:14:45.456Z,7.63
2022-11-05T07:15:45.451Z,7.62
2022-11-05T07:16:45.449Z,7.60
2022-11-05T07:17:45.429Z,7.66
2022-11-05T07:18:45.411Z,7.66
2022-11-05T07:19:45.398Z,7.69
2022-11-05T07:20:45.395Z,7.74
2022-11-05T07:21:45.395Z,7.74
2022-11-05T07:22:45.379Z,7.74
2022-11-05T07:23:45.357Z,7.77
2022-11-05T07:24:45.356Z,7.78
2022-11-05T07:25:45.327Z,7.81
2022-11-05T07:26:45.345Z,7.85
2022-11-05T07:27:45.313Z,7.85
2022-11-05T07:28:45.309Z,7.90
2022-11-05T07:29:45.438Z,7.92
2022-11-05T07:30:45.295Z,7.96
2022-11-05T07:31:45.279Z,7.99
2022-11-05T07:32:45.257Z,8.02
2022-11-05T07:33:45.240Z,8.02
2022-11-05T07:34:45.249Z,8.04
2022-11-05T07:35:45.223Z,8.07
2022-11-05T07:36:45.225Z,8.08
2022-11-05T07:37:45.226Z,8.11
2022-11-05T07:38:45.213Z,8.12
2022-11-05T07:39:45.194Z,8.17
2022-11-05T07:40:45.171Z,8.18
2022-11-05T07:41:45.197Z,8.22
2022-11-05T07:42:45.157Z,8.26
2022-11-05T07:43:47.095Z,8.29
2022-11-05T07:44:45.128Z,8.33
2022-11-05T07:45:45.142Z,8.36
2022-11-05T07:46:45.107Z,8.37
2022-11-05T07:47:45.096Z,8.42
2022-11-05T07:48:45.085Z,8.45
2022-11-05T07:49:45.117Z,8.50
2022-11-05T07:50:45.063Z,8.51
2022-11-05T07:51:45.053Z,8.55
2022-11-05T07:52:45.045Z,8.60
2022-11-05T07:53:45.755Z,8.65
2022-11-05T07:54:45.016Z,8.69
2022-11-05T07:55:45.014Z,8.72
2022-11-05T07:56:46.137Z,8.76
2022-11-05T07:57:45.003Z,8.81
2022-11-05T07:58:44.971Z,8.86
2022-11-05T07:59:44.979Z,8.91
2022-11-05T08:00:45.038Z,8.96
2022-11-05T08:01:46.113Z,9.01
2022-11-05T08:02:45.174Z,9.05
2022-11-05T08:03:44.977Z,9.10
2022-11-05T08:04:45.120Z,9.16
2022-11-05T08:05:44.917Z,9.23
2022-11-05T08:06:44.882Z,9.28
2022-11-05T08:07:44.872Z,9.28
2022-11-05T08:08:44.882Z,9.31
2022-11-05T08:09:44.882Z,9.34
2022-11-05T08:10:44.854Z,9.38
2022-11-05T08:11:44.835Z,9.43
2022-11-05T08:12:44.816Z,9.52
2022-11-05T08:13:44.833Z,9.57
2022-11-05T08:14:44.812Z,9.61
2022-11-05T08:15:44.787Z,9.68
2022-11-05T08:16:44.781Z,9.70
2022-11-05T08:17:44.776Z,9.76
2022-11-05T08:18:44.771Z,9.79
2022-11-05T08:19:44.745Z,9.82
2022-11-05T08:20:44.735Z,9.86
2022-11-05T08:21:44.749Z,9.91
2022-11-05T08:22:44.711Z,9.96
2022-11-05T08:23:44.718Z,9.97
2022-11-05T08:24:44.698Z,10.00
2022-11-05T08:25:44.687Z,10.04
2022-11-05T08:26:44.666Z,10.07
2022-11-05T08:27:44.676Z,10.10
2022-11-05T08:28:44.666Z,10.12
2022-11-05T08:29:44.631Z,10.15
2022-11-05T08:30:44.628Z,10.18
2022-11-05T08:31:44.617Z,10.21
2022-11-05T08:32:44.618Z,10.24
2022-11-05T08:33:44.587Z,10.25
2022-11-05T08:34:44.579Z,10.28
2022-11-05T08:35:44.577Z,10.32
2022-11-05T08:36:44.570Z,10.33
2022-11-05T08:37:44.546Z,10.34
2022-11-05T08:38:44.550Z,10.36
2022-11-05T08:39:44.519Z,10.39
2022-11-05T08:40:44.515Z,10.42
2022-11-05T08:41:44.515Z,10.44
2022-11-05T08:42:44.490Z,10.43
2022-11-05T08:43:44.503Z,10.46
2022-11-05T08:44:44.499Z,10.51
2022-11-05T08:45:44.461Z,10.53
2022-11-05T08:46:44.463Z,10.52
2022-11-05T08:47:44.449Z,10.53
2022-11-05T08:48:44.444Z,10.55
2022-11-05T08:49:44.483Z,10.56
2022-11-05T08:50:44.408Z,10.60
2022-11-05T08:51:44.393Z,10.60
2022-11-05T08:52:44.381Z,10.63
2022-11-05T08:53:44.367Z,10.66
2022-11-05T08:54:44.358Z,10.68
2022-11-05T08:55:44.343Z,10.71
2022-11-05T08:56:44.349Z,10.73
2022-11-05T08:57:44.334Z,10.73
2022-11-05T08:58:44.309Z,10.77
2022-11-05T08:59:44.345Z,10.78
2022-11-05T09:00:44.348Z,10.80
2022-11-05T09:01:44.410Z,10.81
2022-11-05T09:02:44.404Z,10.74
2022-11-05T09:03:44.268Z,10.76
2022-11-05T09:04:44.264Z,10.83
2022-11-05T09:05:44.236Z,10.83
2022-11-05T09:06:44.255Z,10.84
2022-11-05T09:07:44.231Z,10.81
2022-11-05T09:08:44.198Z,10.78
2022-11-05T09:09:44.207Z,10.76
2022-11-05T09:10:44.179Z,10.74
2022-11-05T09:12:10.709Z,10.76
2022-11-05T09:12:45.170Z,10.81
2022-11-05T09:13:44.153Z,10.88
2022-11-05T09:14:44.149Z,10.94
2022-11-05T09:15:44.123Z,10.94
2022-11-05T09:16:44.107Z,10.92
2022-11-05T09:17:44.131Z,10.89
2022-11-05T09:18:44.145Z,10.92
2022-11-05T09:19:44.081Z,10.84
2022-11-05T09:20:44.065Z,10.88
2022-11-05T09:21:44.065Z,10.89
2022-11-05T09:22:44.065Z,10.91
2022-11-05T09:23:44.033Z,10.95
2022-11-05T09:24:44.047Z,10.95
2022-11-05T09:25:44.042Z,10.96
2022-11-05T09:26:44.007Z,10.99
2022-11-05T09:27:44.029Z,10.99
2022-11-05T09:28:43.980Z,10.96
2022-11-05T09:29:43.972Z,10.96
2022-11-05T09:30:43.955Z,10.99
2022-11-05T09:31:43.957Z,11.01
2022-11-05T09:32:43.962Z,11.02
2022-11-05T09:33:43.962Z,11.03
2022-11-05T09:34:43.932Z,11.06
2022-11-05T09:35:43.906Z,11.16
2022-11-05T09:36:44.408Z,11.28
2022-11-05T09:37:43.909Z,11.35
2022-11-05T09:38:43.982Z,11.47
2022-11-05T09:39:43.864Z,11.53
2022-11-05T09:40:44.810Z,11.57
2022-11-05T09:41:43.836Z,11.62
2022-11-05T09:42:44.106Z,11.65
2022-11-05T09:43:43.844Z,11.61
2022-11-05T09:44:43.814Z,11.62
2022-11-05T09:45:43.851Z,11.56
2022-11-05T09:46:43.790Z,11.61
2022-11-05T09:47:43.773Z,11.62
2022-11-05T09:48:43.893Z,11.61
2022-11-05T09:49:43.777Z,11.62
2022-11-05T09:50:43.749Z,11.61
2022-11-05T09:51:43.720Z,11.61
2022-11-05T09:52:43.716Z,11.59
2022-11-05T09:53:43.722Z,11.61
2022-11-05T09:54:43.690Z,11.61
2022-11-05T09:55:43.719Z,11.61
2022-11-05T09:56:43.693Z,11.61
2022-11-05T09:57:43.681Z,11.61
2022-11-05T09:58:43.688Z,11.56
2022-11-05T09:59:43.641Z,11.53
2022-11-05T10:00:43.749Z,11.52
2022-11-05T10:01:43.750Z,11.52
2022-11-05T10:02:43.699Z,11.53
2022-11-05T10:03:43.636Z,11.49
2022-11-05T10:04:43.611Z,11.41
2022-11-05T10:05:43.912Z,11.38
2022-11-05T10:06:43.683Z,11.38
2022-11-05T10:07:43.552Z,11.36
2022-11-05T10:08:43.837Z,11.36
2022-11-05T10:09:43.528Z,11.35
2022-11-05T10:10:43.568Z,11.35
2022-11-05T10:11:43.506Z,11.38
2022-11-05T10:12:43.490Z,11.39
2022-11-05T10:13:43.495Z,11.43
2022-11-05T10:14:43.472Z,11.43
2022-11-05T10:15:43.470Z,11.44
2022-11-05T10:16:43.464Z,11.53
2022-11-05T10:17:43.442Z,11.61
2022-11-05T10:18:43.452Z,11.57
2022-11-05T10:19:43.420Z,11.53
2022-11-05T10:20:43.439Z,11.54
2022-11-05T10:22:13.361Z,11.53
2022-11-05T10:22:49.310Z,11.52
2022-11-05T10:23:44.381Z,11.52
2022-11-05T10:24:43.353Z,11.52
2022-11-05T10:25:43.362Z,11.54
2022-11-05T10:26:43.336Z,11.57
2022-11-05T10:27:43.324Z,11.59
2022-11-05T10:28:43.316Z,11.62
2022-11-05T10:29:43.330Z,11.64
2022-11-05T10:30:43.324Z,11.68
2022-11-05T10:31:43.314Z,11.77
2022-11-05T10:32:43.271Z,11.77
2022-11-05T10:33:43.284Z,11.78
2022-11-05T10:34:43.275Z,11.89
2022-11-05T10:35:43.242Z,12.01
2022-11-05T10:36:43.242Z,12.05
2022-11-05T10:37:43.221Z,12.11
2022-11-05T10:38:43.207Z,12.05
2022-11-05T10:39:43.227Z,12.02
2022-11-05T10:40:43.207Z,12.01
2022-11-05T10:41:43.178Z,12.04
2022-11-05T10:42:43.165Z,12.08
2022-11-05T10:43:43.160Z,12.12
2022-11-05T10:44:43.163Z,12.19
2022-11-05T10:45:43.140Z,12.24
2022-11-05T10:46:43.142Z,12.29
2022-11-05T10:47:43.115Z,12.31
2022-11-05T10:48:44.048Z,12.34
2022-11-05T10:49:43.078Z,12.39
2022-11-05T10:50:43.073Z,12.38
2022-11-05T10:51:43.076Z,12.41
2022-11-05T10:52:43.063Z,12.41
2022-11-05T10:53:43.047Z,12.44
2022-11-05T10:54:43.062Z,12.37
2022-11-05T10:55:43.041Z,12.30
2022-11-05T10:56:43.004Z,12.26
2022-11-05T10:57:43.009Z,12.24
2022-11-05T10:58:42.993Z,12.27
2022-11-05T10:59:42.986Z,12.29
2022-11-05T11:00:43.011Z,12.29
2022-11-05T11:01:43.021Z,12.29
2022-11-05T11:02:42.946Z,12.29
2022-11-05T11:03:42.930Z,12.29
2022-11-05T11:04:42.917Z,12.27
2022-11-05T11:05:42.920Z,12.29
2022-11-05T11:06:42.905Z,12.29
2022-11-05T11:07:42.884Z,12.34
2022-11-05T11:08:42.883Z,12.31
2022-11-05T11:09:42.856Z,12.24
2022-11-05T11:10:42.867Z,12.20
2022-11-05T11:11:42.848Z,12.29
2022-11-05T11:12:42.835Z,12.33
2022-11-05T11:13:42.815Z,12.38
2022-11-05T11:14:42.818Z,12.42
2022-11-05T11:15:42.790Z,12.48
2022-11-05T11:16:42.799Z,12.51
2022-11-05T11:17:42.765Z,12.56
2022-11-05T11:18:42.760Z,12.59
2022-11-05T11:19:42.754Z,12.63
2022-11-05T11:20:42.744Z,12.67
2022-11-05T11:21:42.741Z,12.70
2022-11-05T11:22:42.706Z,12.69
2022-11-05T11:23:42.703Z,12.69
2022-11-05T11:24:42.703Z,12.70
2022-11-05T11:25:42.692Z,12.70
2022-11-05T11:26:42.674Z,12.63
2022-11-05T11:27:42.674Z,12.57
2022-11-05T11:28:42.657Z,12.57
2022-11-05T11:29:46.559Z,12.56
2022-11-05T11:30:43.652Z,12.57
2022-11-05T11:31:42.614Z,12.44
2022-11-05T11:32:42.614Z,12.37
2022-11-05T11:33:42.585Z,12.31
2022-11-05T11:34:42.606Z,12.30
2022-11-05T11:35:42.619Z,12.29
2022-11-05T11:36:42.567Z,12.27
2022-11-05T11:37:42.566Z,12.26
2022-11-05T11:38:42.534Z,12.24
2022-11-05T11:39:42.521Z,12.33
2022-11-05T11:40:42.527Z,12.34
2022-11-05T11:41:42.497Z,12.41
2022-11-05T11:42:42.482Z,12.44
2022-11-05T11:43:42.479Z,12.44
2022-11-05T11:44:42.478Z,12.45
2022-11-05T11:45:42.476Z,12.45
2022-11-05T11:46:42.450Z,12.46
2022-11-05T11:47:42.432Z,12.46
2022-11-05T11:48:42.417Z,12.48
2022-11-05T11:49:42.400Z,12.48
2022-11-05T11:50:42.420Z,12.48
2022-11-05T11:51:45.680Z,12.51
2022-11-05T11:52:43.393Z,12.56
2022-11-05T11:53:42.373Z,12.49
2022-11-05T11:54:42.377Z,12.48
2022-11-05T11:55:42.346Z,12.46
2022-11-05T11:56:42.360Z,12.49
2022-11-05T11:57:42.340Z,12.52
2022-11-05T11:58:42.309Z,12.59
2022-11-05T12:00:07.135Z,12.59
2022-11-05T12:00:43.315Z,12.62
2022-11-05T12:01:42.323Z,12.62
2022-11-05T12:02:42.376Z,12.64
2022-11-05T12:03:42.250Z,12.66
2022-11-05T12:04:42.260Z,12.66
2022-11-05T12:05:42.335Z,12.67
2022-11-05T12:06:42.248Z,12.69
2022-11-05T12:07:43.153Z,12.70
2022-11-05T12:08:45.613Z,12.71
2022-11-05T12:09:42.193Z,12.70
2022-11-05T12:10:42.191Z,12.70
2022-11-05T12:11:42.171Z,12.71
2022-11-05T12:12:42.156Z,12.71
2022-11-05T12:13:42.223Z,12.75
2022-11-05T12:14:46.221Z,12.78
2022-11-05T12:15:42.132Z,12.77
2022-11-05T12:16:42.148Z,12.77
2022-11-05T12:17:42.100Z,12.81
2022-11-05T12:18:42.108Z,12.79
2022-11-05T12:19:42.069Z,12.78
2022-11-05T12:20:42.067Z,12.79
2022-11-05T12:21:52.574Z,12.78
2022-11-05T12:22:43.070Z,12.79
2022-11-05T12:23:42.036Z,12.78
2022-11-05T12:24:42.024Z,12.75
2022-11-05T12:25:41.994Z,12.77
2022-11-05T12:26:41.997Z,12.78
2022-11-05T12:27:41.999Z,12.79
2022-11-05T12:29:04.510Z,12.82
2022-11-05T12:29:42.969Z,12.85
2022-11-05T12:30:41.971Z,12.87
2022-11-05T12:31:41.946Z,12.87
2022-11-05T12:32:42.010Z,12.88
2022-11-05T12:33:41.914Z,12.89
2022-11-05T12:34:41.905Z,12.87
2022-11-05T12:35:47.008Z,12.87
2022-11-05T12:36:42.891Z,12.85
2022-11-05T12:37:41.894Z,12.87
2022-11-05T12:38:41.936Z,12.88
2022-11-05T12:39:41.879Z,12.88
2022-11-05T12:40:41.897Z,12.88
2022-11-05T12:41:41.821Z,12.87
2022-11-05T12:42:41.807Z,12.85
2022-11-05T12:43:41.788Z,12.87
2022-11-05T12:44:41.790Z,12.92
2022-11-05T12:45:41.789Z,12.92
2022-11-05T12:46:41.754Z,12.88
2022-11-05T12:47:41.743Z,12.87
2022-11-05T12:48:41.731Z,12.87
2022-11-05T12:49:41.760Z,12.87
2022-11-05T12:50:41.714Z,12.85
2022-11-05T12:51:41.699Z,12.85
2022-11-05T12:52:41.731Z,12.85
2022-11-05T12:53:42.653Z,12.85
2022-11-05T12:54:41.701Z,12.82
2022-11-05T12:55:47.082Z,12.85
2022-11-05T12:56:44.131Z,12.85
2022-11-05T12:57:41.690Z,12.87
2022-11-05T12:58:41.661Z,12.89
2022-11-05T12:59:41.639Z,12.93
2022-11-05T13:00:41.638Z,12.95
2022-11-05T13:01:41.751Z,12.95
2022-11-05T13:02:41.728Z,12.92
2022-11-05T13:03:41.736Z,12.95
2022-11-05T13:04:41.580Z,12.93
2022-11-05T13:05:41.567Z,12.89
2022-11-05T13:06:41.552Z,12.89
2022-11-05T13:07:41.587Z,12.92
2022-11-05T13:08:41.635Z,12.88